Time;durP1;ratioP1;P1;durP2;ratioP2;P2;SDS_P1;SDS_P2;PMS_P1;PMS_P2;Temp;Humidity;BMP_temperature;BMP_pressure;BME280_temperature;BME280_humidity;BME280_pressure;Samples;Min_cycle;Max_cycle;Signal;HPM_P1;HPM_P2
2022/09/18 00:01:18;;;;;;;3.22;1.25;;;7.50;99.90;;;;;;5037811;28;20042;-55
2022/09/18 00:03:46;;;;;;;4.55;1.38;;;7.50;99.90;;;;;;5036933;28;20101;-55
2022/09/18 00:06:16;;;;;;;3.58;1.20;;;7.50;99.90;;;;;;5032495;28;20036;-54
2022/09/18 00:08:43;;;;;;;9.00;1.70;;;7.50;99.90;;;;;;5033362;28;20293;-54
2022/09/18 00:11:13;;;;;;;3.72;1.33;;;7.40;99.90;;;;;;5029243;28;20833;-54
2022/09/18 00:13:41;;;;;;;4.65;1.75;;;7.50;99.90;;;;;;5031375;28;21045;-54
2022/09/18 00:16:12;;;;;;;3.92;1.40;;;7.50;99.90;;;;;;5026564;28;20044;-55
2022/09/18 00:18:40;;;;;;;1.50;1.17;;;7.50;99.90;;;;;;5029220;28;20036;-55
2022/09/18 00:21:13;;;;;;;5.30;1.27;;;7.50;99.90;;;;;;5032278;28;20664;-55
2022/09/18 00:23:41;;;;;;;2.10;0.90;;;7.50;99.90;;;;;;5020721;28;20569;-55
2022/09/18 00:26:09;;;;;;;2.97;1.10;;;7.50;99.90;;;;;;5027234;28;20105;-54
2022/09/18 00:28:37;;;;;;;2.17;1.10;;;7.50;99.90;;;;;;5037991;28;20044;-55
2022/09/18 00:31:13;;;;;;;5.13;1.45;;;7.50;99.90;;;;;;5031071;28;20313;-55
2022/09/18 00:33:41;;;;;;;4.72;1.40;;;7.50;99.90;;;;;;5027899;28;20040;-59
2022/09/18 00:36:14;;;;;;;2.20;1.73;;;7.50;99.90;;;;;;5027895;28;20036;-54
2022/09/18 00:38:41;;;;;;;8.23;2.00;;;7.50;99.90;;;;;;5029546;28;20219;-55
2022/09/18 00:41:22;;;;;;;3.65;0.93;;;7.50;99.90;;;;;;5029121;28;20093;-54
2022/09/18 00:43:51;;;;;;;5.45;1.30;;;7.50;99.90;;;;;;5028449;28;20321;-54
2022/09/18 00:46:27;;;;;;;6.68;1.60;;;7.60;99.90;;;;;;5029243;28;20065;-55
2022/09/18 00:49:15;;;;;;;6.35;1.98;;;7.60;99.90;;;;;;5033497;28;20052;-55
2022/09/18 00:51:44;;;;;;;4.15;1.50;;;7.60;99.90;;;;;;5024185;28;20936;-56
2022/09/18 00:54:19;;;;;;;3.10;1.38;;;7.60;99.90;;;;;;5024489;28;20113;-55
2022/09/18 00:56:48;;;;;;;3.95;1.33;;;7.60;99.90;;;;;;5028544;28;20475;-55
2022/09/18 00:59:22;;;;;;;2.80;1.33;;;7.60;99.90;;;;;;5029322;28;20136;-54
2022/09/18 01:01:49;;;;;;;4.68;1.70;;;7.50;99.90;;;;;;5027196;28;20081;-55
2022/09/18 01:04:16;;;;;;;;;;;7.50;99.90;;;;;;5028251;28;20051;-55
2022/09/18 01:07:07;;;;;;;2.97;1.73;;;7.50;99.90;;;;;;5021438;28;19919;-55
2022/09/18 01:10:10;;;;;;;4.47;1.40;;;7.50;99.90;;;;;;5028730;28;20597;-54
2022/09/18 01:12:42;;;;;;;3.03;1.23;;;7.50;99.90;;;;;;4988128;28;20049;-55
2022/09/18 01:15:25;;;;;;;2.75;1.52;;;7.60;99.90;;;;;;5025346;28;20043;-55
2022/09/18 01:18:19;;;;;;;3.88;1.33;;;7.50;99.90;;;;;;5021798;28;20592;-54
2022/09/18 01:21:04;;;;;;;8.20;1.83;;;7.60;99.90;;;;;;5028574;28;20179;-55
2022/09/18 01:23:58;;;;;;;6.50;1.50;;;7.60;99.90;;;;;;5029405;28;20052;-55
2022/09/18 01:26:53;;;;;;;5.15;1.83;;;7.60;99.90;;;;;;4994625;28;20169;-55
2022/09/18 01:29:27;;;;;;;8.95;2.33;;;7.50;99.90;;;;;;5031739;28;20589;-55
2022/09/18 01:32:04;;;;;;;7.72;2.15;;;7.60;99.90;;;;;;5022350;28;20208;-54
2022/09/18 01:34:47;;;;;;;4.63;1.30;;;7.60;99.90;;;;;;5027364;28;20055;-53
2022/09/18 01:37:20;;;;;;;3.55;1.40;;;7.60;99.90;;;;;;5047078;27;20051;-55
2022/09/18 01:40:02;;;;;;;4.60;1.40;;;7.60;99.90;;;;;;5030224;28;20354;-54
2022/09/18 01:42:30;;;;;;;3.35;2.20;;;7.60;99.90;;;;;;5022960;28;20378;-55
2022/09/18 01:45:00;;;;;;;2.45;1.27;;;7.60;99.90;;;;;;5030239;28;20044;-54
2022/09/18 01:47:34;;;;;;;5.55;1.90;;;7.50;99.90;;;;;;5031184;28;20379;-55
2022/09/18 01:50:02;;;;;;;10.27;2.15;;;7.60;99.90;;;;;;5026616;28;20800;-53
2022/09/18 01:52:34;;;;;;;3.38;1.67;;;7.50;99.90;;;;;;5032433;28;20081;-55
2022/09/18 01:55:05;;;;;;;5.65;1.60;;;7.60;99.90;;;;;;5028536;28;20048;-55
2022/09/18 01:57:50;;;;;;;4.97;1.70;;;7.50;99.90;;;;;;5019559;28;20067;-55
2022/09/18 02:00:20;;;;;;;4.88;1.83;;;7.50;99.90;;;;;;5029767;28;20325;-55
2022/09/18 02:03:08;;;;;;;7.15;1.95;;;7.50;99.90;;;;;;5029238;28;20793;-55
2022/09/18 02:05:41;;;;;;;1.70;1.25;;;7.50;99.90;;;;;;5048483;27;20579;-55
2022/09/18 02:08:30;;;;;;;7.35;1.92;;;7.60;99.90;;;;;;5034425;27;20039;-54
2022/09/18 02:11:03;;;;;;;7.55;1.23;;;7.50;99.90;;;;;;5019289;28;20326;-55
2022/09/18 02:13:38;;;;;;;4.00;2.25;;;7.50;99.90;;;;;;5030352;28;20055;-54
2022/09/18 02:16:13;;;;;;;3.33;1.20;;;7.50;99.90;;;;;;5039565;28;20702;-55
2022/09/18 02:18:45;;;;;;;3.53;1.48;;;7.50;99.90;;;;;;5040177;28;20828;-54
2022/09/18 02:21:15;;;;;;;5.72;1.70;;;7.50;99.90;;;;;;5036741;28;20043;-54
2022/09/18 02:23:44;;;;;;;7.80;2.00;;;7.50;99.90;;;;;;5031415;28;20036;-55
2022/09/18 02:26:13;;;;;;;6.00;1.45;;;7.50;99.90;;;;;;5033211;28;20252;-55
2022/09/18 02:28:41;;;;;;;9.65;1.40;;;7.50;99.90;;;;;;5034578;28;20043;-55
2022/09/18 02:31:11;;;;;;;3.50;2.00;;;7.50;99.90;;;;;;5030222;28;20046;-55
2022/09/18 02:33:39;;;;;;;4.00;1.58;;;7.50;99.90;;;;;;5035109;28;20151;-55
2022/09/18 02:36:33;;;;;;;3.00;1.70;;;7.50;99.90;;;;;;5031088;28;20134;-55
2022/09/18 02:39:13;;;;;;;3.90;1.80;;;7.50;99.90;;;;;;5030283;28;20048;-55
2022/09/18 02:41:40;;;;;;;2.45;1.10;;;7.50;99.90;;;;;;5029319;28;20036;-55
2022/09/18 02:44:30;;;;;;;5.15;1.30;;;7.50;99.90;;;;;;5028862;28;20044;-55
2022/09/18 02:47:02;;;;;;;4.13;1.50;;;7.50;99.90;;;;;;5032970;28;20191;-55
2022/09/18 02:50:04;;;;;;;5.35;1.70;;;7.50;99.90;;;;;;5032898;28;20104;-55
2022/09/18 02:52:50;;;;;;;8.07;2.53;;;7.50;99.90;;;;;;4994838;28;20151;-56
2022/09/18 02:55:20;;;;;;;4.97;1.73;;;7.50;99.90;;;;;;5034451;28;20577;-54
2022/09/18 02:57:59;;;;;;;3.33;1.48;;;7.50;99.90;;;;;;5040120;28;20105;-54
2022/09/18 03:00:29;;;;;;;2.85;1.58;;;7.50;99.90;;;;;;5029838;28;20051;-54
2022/09/18 03:03:00;;;;;;;9.43;1.40;;;7.50;99.90;;;;;;5037893;28;20208;-54
2022/09/18 03:05:43;;;;;;;3.97;2.33;;;7.50;99.90;;;;;;5031236;28;20208;-55
2022/09/18 03:08:11;;;;;;;9.13;2.05;;;7.50;99.90;;;;;;5031625;28;20800;-55
2022/09/18 03:10:38;;;;;;;5.18;1.98;;;7.50;99.90;;;;;;5037228;28;20209;-56
2022/09/18 03:13:04;;;;;;;;;;;7.50;99.90;;;;;;5029445;28;20071;-55
2022/09/18 03:15:31;;;;;;;4.13;1.70;;;7.50;99.90;;;;;;5028362;28;19931;-55
2022/09/18 03:17:59;;;;;;;5.22;1.70;;;7.50;99.90;;;;;;5031567;28;20221;-55
2022/09/18 03:20:26;;;;;;;4.78;1.98;;;7.40;99.90;;;;;;5025633;28;20257;-57
2022/09/18 03:22:53;;;;;;;4.38;1.40;;;7.50;99.90;;;;;;5031255;28;20043;-55
2022/09/18 03:25:20;;;;;;;4.25;1.45;;;7.50;99.90;;;;;;5031950;28;20434;-56
2022/09/18 03:27:47;;;;;;;4.72;1.17;;;7.50;99.90;;;;;;5032285;28;20139;-55
2022/09/18 03:30:24;;;;;;;9.68;1.80;;;7.50;99.90;;;;;;5032754;28;20343;-56
2022/09/18 03:32:52;;;;;;;2.13;1.45;;;7.50;99.90;;;;;;5026377;28;20036;-55
2022/09/18 03:35:19;;;;;;;4.10;1.60;;;7.50;99.90;;;;;;5034193;28;20044;-55
2022/09/18 03:37:47;;;;;;;4.55;1.50;;;7.50;99.90;;;;;;5032871;28;20035;-55
2022/09/18 03:40:19;;;;;;;3.58;1.48;;;7.50;99.90;;;;;;5023733;28;20349;-55
2022/09/18 03:42:47;;;;;;;4.30;1.60;;;7.50;99.90;;;;;;5029617;28;20535;-55
2022/09/18 03:45:14;;;;;;;4.85;1.40;;;7.50;99.90;;;;;;5032125;28;20589;-56
2022/09/18 03:47:42;;;;;;;2.22;1.10;;;7.50;99.90;;;;;;5028884;28;20560;-55
2022/09/18 03:50:10;;;;;;;5.40;1.50;;;7.50;99.90;;;;;;5035427;28;20213;-54
2022/09/18 03:52:38;;;;;;;5.00;1.88;;;7.50;99.90;;;;;;5025956;28;20284;-57
2022/09/18 03:55:26;;;;;;;3.22;1.55;;;7.50;99.90;;;;;;5027301;28;20665;-59
2022/09/18 03:58:18;;;;;;;2.85;1.58;;;7.40;99.90;;;;;;5032114;28;20211;-55
2022/09/18 04:01:05;;;;;;;9.57;1.67;;;7.40;99.90;;;;;;5029850;28;20048;-56
2022/09/18 04:03:50;;;;;;;5.38;1.25;;;7.50;99.90;;;;;;5034174;28;20164;-54
2022/09/18 04:06:36;;;;;;;4.78;2.30;;;7.40;99.90;;;;;;5032342;28;20063;-54
2022/09/18 04:09:29;;;;;;;3.92;1.58;;;7.40;99.90;;;;;;5029950;28;20651;-56
2022/09/18 04:11:56;;;;;;;3.55;1.45;;;7.40;99.90;;;;;;5044946;27;20972;-55
2022/09/18 04:14:23;;;;;;;4.85;1.70;;;7.40;99.90;;;;;;5032137;28;20055;-54
2022/09/18 04:16:56;;;;;;;4.07;1.15;;;7.40;99.90;;;;;;5031793;28;20388;-54
2022/09/18 04:19:23;;;;;;;7.78;1.77;;;7.40;99.90;;;;;;5030576;28;20966;-57
2022/09/18 04:21:49;;;;;;;;;;;7.40;99.90;;;;;;5029129;28;20155;-55
2022/09/18 04:24:16;;;;;;;5.53;1.30;;;7.30;99.90;;;;;;5030263;28;19930;-55
2022/09/18 04:26:43;;;;;;;3.30;1.77;;;7.40;99.90;;;;;;5012313;28;20041;-55
2022/09/18 04:29:12;;;;;;;2.50;1.30;;;7.30;99.90;;;;;;5029000;28;20108;-55
2022/09/18 04:31:39;;;;;;;3.55;1.60;;;7.30;99.90;;;;;;5031997;28;20035;-55
2022/09/18 04:34:11;;;;;;;4.45;1.88;;;7.30;99.90;;;;;;5026226;28;20059;-55
2022/09/18 04:36:37;;;;;;;3.40;1.25;;;7.30;99.90;;;;;;5032370;28;20032;-55
2022/09/18 04:39:06;;;;;;;3.55;1.50;;;7.30;99.90;;;;;;5031739;28;20100;-54
2022/09/18 04:41:34;;;;;;;7.38;1.77;;;7.30;99.90;;;;;;5039437;28;20048;-55
2022/09/18 04:44:02;;;;;;;5.18;1.58;;;7.30;99.90;;;;;;5029684;28;20035;-54
2022/09/18 04:46:30;;;;;;;7.25;1.90;;;7.30;99.90;;;;;;5044305;27;20043;-54
2022/09/18 04:48:59;;;;;;;3.75;1.60;;;7.30;99.90;;;;;;5018272;28;20043;-56
2022/09/18 04:51:28;;;;;;;3.30;1.27;;;7.20;99.90;;;;;;5033320;28;20036;-54
2022/09/18 04:53:55;;;;;;;3.50;1.48;;;7.20;99.90;;;;;;5032290;28;20047;-55
2022/09/18 04:56:23;;;;;;;3.92;1.52;;;7.20;99.90;;;;;;5034540;28;20040;-55
2022/09/18 04:58:51;;;;;;;3.85;1.63;;;7.20;99.90;;;;;;5031329;28;20588;-55
2022/09/18 05:01:18;;;;;;;11.20;2.03;;;7.20;99.90;;;;;;5030733;28;20374;-56
2022/09/18 05:03:46;;;;;;;3.65;1.85;;;7.20;99.90;;;;;;5030351;28;20044;-55
2022/09/18 05:06:34;;;;;;;5.75;1.73;;;7.20;99.90;;;;;;5002277;28;20669;-55
2022/09/18 05:09:01;;;;;;;4.60;1.48;;;7.20;99.90;;;;;;5031797;28;20208;-56
2022/09/18 05:11:28;;;;;;;5.00;1.50;;;7.10;99.90;;;;;;5027164;28;20040;-55
2022/09/18 05:13:56;;;;;;;3.88;2.58;;;7.10;99.90;;;;;;5027250;28;20236;-56
2022/09/18 05:16:26;;;;;;;6.03;1.80;;;7.10;99.90;;;;;;5037070;28;20101;-55
2022/09/18 05:19:12;;;;;;;3.70;1.92;;;7.10;99.90;;;;;;5030669;28;20415;-55
2022/09/18 05:21:39;;;;;;;2.47;1.50;;;7.00;99.90;;;;;;5028526;28;20040;-56
2022/09/18 05:24:08;;;;;;;1.55;1.25;;;7.10;99.90;;;;;;5038402;28;20040;-55
2022/09/18 05:26:35;;;;;;;2.05;1.15;;;7.10;99.90;;;;;;5039161;28;20048;-56
2022/09/18 05:29:02;;;;;;;5.90;1.42;;;7.10;99.90;;;;;;5044501;27;20043;-55
2022/09/18 05:31:29;;;;;;;;;;;7.10;99.90;;;;;;5033246;28;20051;-54
2022/09/18 05:33:57;;;;;;;11.27;2.05;;;7.00;99.90;;;;;;5036998;28;20605;-55
2022/09/18 05:36:24;;;;;;;2.33;1.60;;;7.10;99.90;;;;;;5031684;28;20897;-55
2022/09/18 05:38:51;;;;;;;8.18;2.10;;;7.10;99.90;;;;;;5029096;28;20054;-54
2022/09/18 05:41:18;;;;;;;4.82;1.63;;;7.10;99.90;;;;;;5037997;28;20040;-56
2022/09/18 05:43:45;;;;;;;6.35;2.10;;;7.10;99.90;;;;;;5027336;28;20044;-56
2022/09/18 05:46:13;;;;;;;3.03;1.50;;;7.10;99.90;;;;;;5026835;28;20201;-55
2022/09/18 05:48:49;;;;;;;4.20;2.00;;;7.10;99.90;;;;;;5033181;28;20140;-55
2022/09/18 05:51:17;;;;;;;8.65;1.67;;;7.10;99.90;;;;;;5027387;28;20146;-55
2022/09/18 05:53:47;;;;;;;2.55;1.52;;;7.20;99.90;;;;;;5038305;28;20046;-55
2022/09/18 05:56:23;;;;;;;5.50;2.47;;;7.20;99.90;;;;;;5036165;28;20239;-55
2022/09/18 05:58:52;;;;;;;2.13;1.60;;;7.20;99.90;;;;;;5030680;28;20055;-55
2022/09/18 06:01:19;;;;;;;2.28;1.70;;;7.20;99.90;;;;;;5021211;28;20569;-56
2022/09/18 06:04:07;;;;;;;4.78;2.45;;;7.30;99.90;;;;;;5029883;28;20125;-49
2022/09/18 06:06:43;;;;;;;4.85;1.40;;;7.30;99.90;;;;;;5033213;28;20156;-48
2022/09/18 06:09:10;;;;;;;10.60;1.70;;;7.40;99.90;;;;;;5031688;28;20059;-52
2022/09/18 06:11:37;;;;;;;8.98;1.67;;;7.40;99.90;;;;;;5030465;28;20155;-50
2022/09/18 06:14:04;;;;;;;2.10;1.30;;;7.40;99.90;;;;;;5033358;28;20166;-52
2022/09/18 06:16:32;;;;;;;6.15;1.63;;;7.50;99.90;;;;;;5037420;28;20149;-51
2022/09/18 06:19:06;;;;;;;2.50;1.42;;;7.50;99.90;;;;;;5031403;28;20070;-52
2022/09/18 06:21:34;;;;;;;11.20;1.48;;;7.50;99.90;;;;;;5031341;28;20290;-50
2022/09/18 06:24:03;;;;;;;4.10;1.63;;;7.60;99.90;;;;;;5020697;28;20106;-50
2022/09/18 06:26:39;;;;;;;10.90;1.50;;;7.60;99.90;;;;;;5029532;28;20366;-54
2022/09/18 06:29:06;;;;;;;3.05;1.80;;;7.60;99.90;;;;;;5033476;28;20251;-55
2022/09/18 06:31:44;;;;;;;2.83;1.58;;;7.70;99.90;;;;;;5031343;28;20821;-55
2022/09/18 06:34:17;;;;;;;5.00;1.65;;;7.70;99.90;;;;;;5026230;28;20263;-56
2022/09/18 06:36:45;;;;;;;8.48;1.92;;;7.80;99.90;;;;;;5031037;28;20048;-56
2022/09/18 06:39:33;;;;;;;;;;;7.80;99.90;;;;;;5032117;28;20048;-55
2022/09/18 06:42:01;;;;;;;8.13;1.65;;;7.90;99.90;;;;;;5029467;28;19919;-59
2022/09/18 06:44:50;;;;;;;2.65;1.50;;;7.90;99.90;;;;;;5029229;28;20135;-53
2022/09/18 06:47:19;;;;;;;4.72;1.23;;;8.00;99.90;;;;;;5026510;28;20043;-55
2022/09/18 06:49:47;;;;;;;7.32;1.13;;;8.00;99.90;;;;;;5031242;28;20037;-55
2022/09/18 06:52:16;;;;;;;3.65;1.27;;;8.10;99.90;;;;;;5038152;28;20620;-56
2022/09/18 06:54:43;;;;;;;5.32;1.40;;;8.10;99.90;;;;;;5031149;28;20047;-55
2022/09/18 06:57:17;;;;;;;3.80;1.67;;;8.20;99.90;;;;;;5039593;28;20052;-55
2022/09/18 06:59:44;;;;;;;4.72;1.42;;;8.20;99.90;;;;;;5033341;28;20965;-54
2022/09/18 07:02:13;;;;;;;3.58;1.35;;;8.30;99.90;;;;;;5021852;28;20040;-55
2022/09/18 07:04:59;;;;;;;5.30;1.38;;;8.40;99.90;;;;;;5036313;28;20655;-56
2022/09/18 07:07:26;;;;;;;4.50;1.27;;;8.50;99.90;;;;;;5018300;28;20039;-56
2022/09/18 07:09:55;;;;;;;7.20;1.92;;;8.70;99.90;;;;;;5037337;28;20039;-56
2022/09/18 07:12:39;;;;;;;6.00;1.40;;;8.90;99.90;;;;;;5042196;28;20347;-54
2022/09/18 07:15:07;;;;;;;5.15;1.65;;;9.20;99.90;;;;;;5040784;28;20048;-55
2022/09/18 07:17:34;;;;;;;4.70;1.60;;;9.40;99.90;;;;;;5031287;28;20259;-56
2022/09/18 07:20:01;;;;;;;6.93;1.85;;;9.70;99.90;;;;;;5041061;28;20043;-55
2022/09/18 07:22:37;;;;;;;3.13;1.30;;;9.90;99.90;;;;;;5030968;28;20401;-55
2022/09/18 07:25:06;;;;;;;2.50;0.88;;;10.10;99.90;;;;;;5040001;28;20403;-55
2022/09/18 07:27:34;;;;;;;5.90;1.65;;;10.40;99.90;;;;;;5030988;28;20044;-56
2022/09/18 07:30:01;;;;;;;2.22;1.20;;;10.50;99.90;;;;;;5041962;28;20600;-54
2022/09/18 07:32:28;;;;;;;8.02;1.83;;;10.70;99.90;;;;;;5032546;28;20212;-55
2022/09/18 07:34:57;;;;;;;5.25;1.20;;;10.70;99.90;;;;;;5037419;28;20066;-55
2022/09/18 07:37:29;;;;;;;6.65;1.45;;;10.80;99.90;;;;;;5033482;28;20695;-54
2022/09/18 07:40:18;;;;;;;3.10;1.23;;;10.90;99.90;;;;;;5007130;28;20855;-54
2022/09/18 07:43:06;;;;;;;6.40;1.20;;;10.90;99.90;;;;;;5026902;28;20312;-55
2022/09/18 07:45:37;;;;;;;4.53;1.20;;;11.00;99.90;;;;;;5031910;28;20572;-55
2022/09/18 07:48:05;;;;;;;6.20;1.55;;;11.00;99.90;;;;;;5047126;27;20147;-55
2022/09/18 07:50:38;;;;;;;2.42;1.08;;;11.30;99.90;;;;;;5038473;27;20039;-56
2022/09/18 07:53:09;;;;;;;6.00;1.25;;;11.60;99.90;;;;;;5035054;28;20915;-57
2022/09/18 07:55:41;;;;;;;4.03;1.30;;;11.90;99.90;;;;;;5041004;28;20576;-54
2022/09/18 07:58:08;;;;;;;7.78;1.30;;;12.00;99.90;;;;;;5027613;28;20208;-56
2022/09/18 08:01:02;;;;;;;5.72;1.35;;;12.00;99.90;;;;;;5032170;28;20700;-55
2022/09/18 08:03:31;;;;;;;7.75;1.30;;;11.80;99.90;;;;;;5032687;28;20151;-55
2022/09/18 08:06:11;;;;;;;11.23;1.50;;;11.60;99.90;;;;;;5031950;28;20186;-56
2022/09/18 08:09:03;;;;;;;6.78;1.60;;;11.50;99.90;;;;;;5037895;28;20039;-56
2022/09/18 08:11:53;;;;;;;4.75;1.20;;;11.30;99.90;;;;;;5029805;28;20187;-56
2022/09/18 08:14:38;;;;;;;5.75;1.10;;;11.30;99.90;;;;;;5031969;28;21015;-56
2022/09/18 08:17:28;;;;;;;2.92;0.90;;;11.20;99.90;;;;;;5029624;28;20110;-55
2022/09/18 08:20:17;;;;;;;4.05;1.20;;;11.10;99.90;;;;;;5019408;28;20269;-56
2022/09/18 08:23:05;;;;;;;4.35;1.08;;;11.40;99.90;;;;;;5034305;28;20059;-56
2022/09/18 08:25:32;;;;;;;1.67;0.70;;;11.80;99.90;;;;;;5029395;28;20207;-55
2022/09/18 08:28:01;;;;;;;3.00;0.80;;;12.10;99.90;;;;;;5025902;28;20044;-56
2022/09/18 08:30:40;;;;;;;2.25;0.77;;;12.30;99.90;;;;;;5023776;28;20584;-55
2022/09/18 08:33:10;;;;;;;4.90;0.95;;;12.60;99.90;;;;;;5021180;28;20047;-55
2022/09/18 08:35:37;;;;;;;8.95;1.38;;;12.80;99.90;;;;;;5034761;28;20549;-56
2022/09/18 08:38:17;;;;;;;0.98;0.50;;;12.80;99.90;;;;;;5032275;28;20044;-54
2022/09/18 08:41:15;;;;;;;3.10;1.10;;;12.80;99.90;;;;;;5030911;28;20055;-55
2022/09/18 08:43:52;;;;;;;5.35;0.65;;;12.80;99.90;;;;;;5031873;28;20120;-54
2022/09/18 08:46:42;;;;;;;3.60;0.70;;;12.80;99.90;;;;;;5027404;28;20224;-57
2022/09/18 08:49:41;;;;;;;3.15;0.95;;;12.80;99.90;;;;;;5030554;28;20040;-56
2022/09/18 08:52:14;;;;;;;5.18;0.98;;;13.10;99.90;;;;;;5023840;28;20056;-55
2022/09/18 08:54:50;;;;;;;4.32;0.70;;;13.20;99.90;;;;;;5026037;28;20040;-55
2022/09/18 08:57:53;;;;;;;5.45;1.00;;;13.30;99.90;;;;;;5037656;28;20055;-55
2022/09/18 09:00:43;;;;;;;7.75;0.80;;;13.40;99.90;;;;;;5019867;28;20056;-55
2022/09/18 09:04:02;;;;;;;3.45;0.80;;;13.60;99.90;;;;;;5029241;28;20461;-59
2022/09/18 09:06:36;;;;;;;3.90;1.17;;;13.70;99.90;;;;;;5037460;28;20244;-54
2022/09/18 09:09:45;;;;;;;4.55;1.30;;;13.90;99.90;;;;;;5030648;28;20252;-55
2022/09/18 09:12:34;;;;;;;3.42;1.05;;;14.10;99.90;;;;;;5036764;28;20071;-56
2022/09/18 09:15:19;;;;;;;3.25;0.85;;;14.30;99.90;;;;;;5027284;28;20137;-55
2022/09/18 09:18:03;;;;;;;1.95;0.77;;;14.40;99.90;;;;;;5039207;28;20393;-54
2022/09/18 09:20:51;;;;;;;2.15;1.10;;;14.50;99.90;;;;;;5028656;28;20868;-55
2022/09/18 09:23:50;;;;;;;1.67;0.63;;;14.60;99.90;;;;;;5027194;28;20362;-55
2022/09/18 09:26:44;;;;;;;2.13;0.60;;;14.70;99.90;;;;;;5031493;28;20554;-55
2022/09/18 09:29:23;;;;;;;3.17;0.85;;;14.90;99.90;;;;;;5030158;28;20036;-55
2022/09/18 09:32:28;;;;;;;2.60;0.70;;;14.90;99.90;;;;;;5033676;28;20067;-55
2022/09/18 09:35:20;;;;;;;2.08;0.60;;;15.00;96.60;;;;;;5025531;28;20039;-56
2022/09/18 09:38:31;;;;;;;1.85;0.75;;;15.10;96.70;;;;;;5031553;28;20044;-62
2022/09/18 09:41:21;;;;;;;3.03;0.70;;;15.20;95.70;;;;;;5018766;28;20249;-56
2022/09/18 09:44:13;;;;;;;2.22;1.40;;;15.30;96.00;;;;;;5028227;28;20044;-56
2022/09/18 09:46:59;;;;;;;3.15;0.88;;;15.40;93.90;;;;;;5028552;28;20247;-51
2022/09/18 09:49:34;;;;;;;8.63;0.93;;;15.60;94.70;;;;;;5032379;28;20079;-52
2022/09/18 09:52:06;;;;;;;4.13;1.10;;;15.80;92.60;;;;;;5039723;28;20186;-51
2022/09/18 09:54:36;;;;;;;2.90;1.40;;;15.90;92.20;;;;;;5028867;28;20048;-51
2022/09/18 09:57:36;;;;;;;0.50;0.45;;;16.00;87.50;;;;;;5013555;28;20047;-56
2022/09/18 10:00:18;;;;;;;2.95;1.00;;;16.00;88.60;;;;;;5029363;28;20412;-55
2022/09/18 10:02:55;;;;;;;8.25;0.82;;;15.90;83.30;;;;;;5024898;28;20304;-56
2022/09/18 10:05:28;;;;;;;1.60;0.55;;;15.60;83.80;;;;;;5035887;28;20060;-56
2022/09/18 10:08:25;;;;;;;1.60;0.60;;;15.50;84.80;;;;;;5039081;28;20555;-52
2022/09/18 10:11:00;;;;;;;2.30;0.63;;;15.40;90.70;;;;;;5036126;28;20055;-55
2022/09/18 10:13:46;;;;;;;2.63;0.70;;;15.30;86.40;;;;;;5025062;28;20205;-58
2022/09/18 10:16:22;;;;;;;4.80;0.80;;;15.30;88.20;;;;;;5036936;28;20946;-56
2022/09/18 10:18:50;;;;;;;0.80;0.63;;;15.10;88.60;;;;;;5027942;28;20043;-56
2022/09/18 10:21:25;;;;;;;2.47;0.70;;;14.80;89.30;;;;;;5033312;28;20371;-57
2022/09/18 10:24:23;;;;;;;2.03;0.80;;;14.60;93.60;;;;;;5037460;28;20048;-56
2022/09/18 10:26:58;;;;;;;1.45;0.50;;;14.50;97.60;;;;;;5034061;28;20035;-56
2022/09/18 10:29:25;;;;;;;1.02;0.47;;;14.50;95.30;;;;;;5032894;28;20036;-57
2022/09/18 10:31:59;;;;;;;1.77;0.60;;;14.50;96.90;;;;;;5018611;28;20807;-54
2022/09/18 10:34:48;;;;;;;1.65;0.50;;;14.60;96.60;;;;;;5033249;28;20058;-57
2022/09/18 10:37:28;;;;;;;7.53;0.98;;;14.80;93.60;;;;;;5042491;28;20101;-57
2022/09/18 10:40:01;;;;;;;3.00;0.90;;;14.80;92.20;;;;;;5030302;28;20309;-57
2022/09/18 10:42:33;;;;;;;6.57;0.60;;;14.80;94.50;;;;;;5040643;28;20779;-55
2022/09/18 10:45:28;;;;;;;2.35;0.60;;;14.70;91.40;;;;;;5042544;28;20051;-57
2022/09/18 10:48:12;;;;;;;1.20;0.85;;;14.70;94.80;;;;;;5045122;28;20257;-56
2022/09/18 10:51:01;;;;;;;1.90;0.55;;;14.60;93.30;;;;;;5028958;28;20452;-55
2022/09/18 10:53:37;;;;;;;1.48;0.57;;;14.60;95.30;;;;;;5032629;28;20912;-56
2022/09/18 10:56:19;;;;;;;4.53;1.20;;;14.80;94.60;;;;;;5030802;28;20035;-56
2022/09/18 10:58:50;;;;;;;1.50;0.75;;;15.10;90.30;;;;;;5027945;28;20036;-57
2022/09/18 11:01:17;;;;;;;3.05;0.73;;;15.30;91.40;;;;;;5032946;28;20298;-56
2022/09/18 11:04:01;;;;;;;5.80;0.90;;;15.50;90.20;;;;;;5033748;27;20036;-57
2022/09/18 11:06:36;;;;;;;4.10;0.63;;;15.60;81.00;;;;;;5015459;28;20270;-57
2022/09/18 11:09:31;;;;;;;3.40;1.42;;;15.40;78.20;;;;;;5040405;28;20231;-57
2022/09/18 11:11:59;;;;;;;1.98;0.60;;;15.30;83.30;;;;;;5032767;28;20036;-58
2022/09/18 11:14:40;;;;;;;3.35;0.60;;;15.30;88.10;;;;;;5035838;28;20796;-55
2022/09/18 11:17:47;;;;;;;1.63;0.68;;;15.40;84.80;;;;;;5034982;28;20347;-54
2022/09/18 11:20:32;;;;;;;4.43;0.85;;;15.40;83.70;;;;;;4985688;28;20159;-56
2022/09/18 11:23:29;;;;;;;2.00;0.50;;;15.60;85.40;;;;;;5041525;28;20159;-56
2022/09/18 11:26:29;;;;;;;1.70;0.60;;;15.90;82.50;;;;;;5029613;28;20833;-55
2022/09/18 11:29:16;;;;;;;2.63;0.70;;;16.10;74.10;;;;;;5032160;28;20988;-58
2022/09/18 11:31:55;;;;;;;3.50;0.63;;;16.00;73.30;;;;;;5028646;28;20070;-56
2022/09/18 11:34:37;;;;;;;0.63;0.60;;;16.00;74.20;;;;;;5031071;28;20048;-56
2022/09/18 11:37:11;;;;;;;2.85;0.50;;;16.00;73.90;;;;;;5025406;28;20044;-55
2022/09/18 11:39:49;;;;;;;1.55;0.75;;;15.80;79.00;;;;;;5031967;28;20052;-57
2022/09/18 11:42:17;;;;;;;0.73;0.60;;;15.70;79.30;;;;;;5032795;28;20031;-56
2022/09/18 11:44:46;;;;;;;3.08;0.80;;;15.60;80.80;;;;;;5031007;28;20271;-56
2022/09/18 11:47:20;;;;;;;2.45;0.65;;;15.50;78.40;;;;;;5040917;28;20046;-56
2022/09/18 11:50:16;;;;;;;3.13;0.70;;;15.40;78.90;;;;;;5032153;28;20469;-56
2022/09/18 11:52:56;;;;;;;1.58;0.75;;;15.40;82.00;;;;;;5036716;28;20142;-57
2022/09/18 11:55:31;;;;;;;3.45;0.75;;;15.50;82.20;;;;;;5032974;28;20055;-57
2022/09/18 11:58:23;;;;;;;6.45;0.88;;;15.60;82.60;;;;;;5033969;28;20219;-57
2022/09/18 12:01:08;;;;;;;1.60;0.55;;;15.60;80.40;;;;;;5025829;28;20165;-57
2022/09/18 12:03:46;;;;;;;1.95;0.60;;;15.70;79.50;;;;;;5035772;28;20055;-58
2022/09/18 12:06:42;;;;;;;2.83;0.70;;;15.70;79.60;;;;;;5025633;28;20239;-58
2022/09/18 12:09:18;;;;;;;1.48;0.65;;;15.80;82.40;;;;;;5041301;28;20093;-57
2022/09/18 12:12:07;;;;;;;1.98;0.60;;;15.80;78.60;;;;;;5016992;28;20152;-56
2022/09/18 12:14:46;;;;;;;1.60;0.40;;;15.90;79.10;;;;;;5032161;28;20040;-57
2022/09/18 12:17:41;;;;;;;5.43;0.55;;;16.00;76.80;;;;;;5030089;28;20596;-57
2022/09/18 12:20:40;;;;;;;3.42;1.00;;;16.10;76.40;;;;;;5048054;27;20877;-61
2022/09/18 12:23:15;;;;;;;1.80;0.68;;;16.30;78.00;;;;;;5032916;28;20181;-60
2022/09/18 12:25:47;;;;;;;5.20;0.77;;;16.40;71.10;;;;;;5039980;28;20044;-56
2022/09/18 12:28:44;;;;;;;4.50;0.95;;;16.50;69.80;;;;;;5037948;28;20039;-55
2022/09/18 12:31:36;;;;;;;2.35;0.60;;;16.40;71.70;;;;;;5031801;28;20522;-55
2022/09/18 12:34:13;;;;;;;2.22;0.70;;;16.30;71.50;;;;;;5024880;28;20843;-57
2022/09/18 12:36:56;;;;;;;3.05;0.80;;;16.50;71.60;;;;;;5030804;28;20036;-64
2022/09/18 12:39:38;;;;;;;2.25;0.80;;;16.60;69.20;;;;;;5040619;28;20098;-56
2022/09/18 12:42:11;;;;;;;10.50;0.98;;;16.80;67.30;;;;;;5034290;27;20254;-64
2022/09/18 12:44:53;;;;;;;1.98;0.95;;;16.90;68.20;;;;;;5030681;28;20365;-61
2022/09/18 12:47:23;;;;;;;2.75;0.65;;;17.00;66.50;;;;;;5031326;28;20044;-62
2022/09/18 12:50:15;;;;;;;1.42;0.60;;;16.90;68.90;;;;;;5030421;28;20486;-61
2022/09/18 12:53:02;;;;;;;3.42;0.75;;;16.80;65.70;;;;;;5035685;28;20032;-62
2022/09/18 12:56:17;;;;;;;3.03;0.70;;;16.70;66.50;;;;;;5031913;28;20116;-55
2022/09/18 12:59:11;;;;;;;18.75;1.15;;;16.60;67.90;;;;;;5026865;28;20162;-57
2022/09/18 13:02:03;;;;;;;1.35;0.40;;;16.60;67.50;;;;;;5038781;28;20773;-55
2022/09/18 13:04:35;;;;;;;1.88;0.55;;;16.60;65.90;;;;;;5029318;28;20047;-55
2022/09/18 13:07:07;;;;;;;1.50;0.65;;;16.70;69.60;;;;;;5031285;28;20040;-57
2022/09/18 13:09:42;;;;;;;1.60;0.60;;;16.80;64.80;;;;;;5032449;28;20569;-57
2022/09/18 13:12:26;;;;;;;2.17;0.50;;;16.90;66.80;;;;;;5034277;28;20118;-57
2022/09/18 13:14:59;;;;;;;2.05;0.77;;;16.90;66.00;;;;;;5034530;28;20257;-57
2022/09/18 13:17:56;;;;;;;2.75;0.90;;;16.90;64.60;;;;;;5034602;28;20046;-56
2022/09/18 13:20:30;;;;;;;2.97;0.60;;;16.90;64.60;;;;;;5018455;28;20060;-57
2022/09/18 13:22:59;;;;;;;3.88;1.02;;;16.90;65.70;;;;;;5033050;28;20051;-56
2022/09/18 13:25:37;;;;;;;1.75;0.65;;;17.00;67.50;;;;;;5030664;28;20243;-57
2022/09/18 13:28:13;;;;;;;1.42;0.40;;;17.00;65.20;;;;;;5027789;28;20040;-56
2022/09/18 13:30:40;;;;;;;3.53;0.77;;;16.80;65.20;;;;;;5031245;28;20609;-57
2022/09/18 13:33:25;;;;;;;4.43;0.50;;;16.70;64.20;;;;;;5031217;28;20215;-55
2022/09/18 13:35:55;;;;;;;3.38;0.68;;;16.50;69.00;;;;;;5038582;28;20043;-56
2022/09/18 13:38:27;;;;;;;4.55;1.15;;;16.40;69.00;;;;;;5028348;28;20841;-57
2022/09/18 13:41:00;;;;;;;1.88;0.50;;;16.20;72.60;;;;;;5034654;28;20044;-56
2022/09/18 13:43:27;;;;;;;2.83;0.70;;;16.10;74.10;;;;;;5027752;28;20035;-57